Time;durP1;ratioP1;P1;durP2;ratioP2;P2;SDS_P1;SDS_P2;PMS_P1;PMS_P2;Temp;Humidity;BMP_temperature;BMP_pressure;BME280_temperature;BME280_humidity;BME280_pressure;Samples;Min_cycle;Max_cycle;Signal;HPM_P1;HPM_P2
2024/01/19 00:07:07;;;;;;;;;;;-0.60;99.90;;;;;;6768298;87;20077;-77
2024/01/19 00:17:08;;;;;;;;;;;-0.70;99.90;;;;;;6760503;88;20091;-78
2024/01/19 00:27:08;;;;;;;;;;;-0.60;99.90;;;;;;6762755;88;20057;-78
2024/01/19 00:37:09;;;;;;;;;;;-0.60;99.90;;;;;;6773861;76;22192;-77
2024/01/19 00:47:09;;;;;;;;;;;-0.70;99.90;;;;;;6722804;88;20157;-77
2024/01/19 00:57:10;;;;;;;;;;;-0.80;99.90;;;;;;6729299;88;20089;-77
2024/01/19 01:07:10;;;;;;;;;;;-1.20;99.90;;;;;;6726601;88;20502;-76
2024/01/19 01:17:10;;;;;;;;;;;-1.60;99.90;;;;;;6725679;88;20054;-77
2024/01/19 01:27:11;;;;;;;;;;;-1.80;99.90;;;;;;6728844;88;20134;-77
2024/01/19 01:37:11;;;;;;;;;;;-2.10;99.90;;;;;;6729589;88;20094;-76
2024/01/19 01:47:12;;;;;;;;;;;-2.30;99.90;;;;;;6726453;88;20501;-77
2024/01/19 01:57:14;;;;;;;;;;;-2.40;99.90;;;;;;6730979;88;20164;-76
2024/01/19 02:07:14;;;;;;;;;;;-2.20;99.90;;;;;;6738156;88;20077;-76
2024/01/19 02:17:15;;;;;;;;;;;-2.20;99.90;;;;;;6724744;88;20609;-76
2024/01/19 02:27:16;;;;;;;;;;;-2.60;99.90;;;;;;6722104;88;20073;-77
2024/01/19 02:37:17;;;;;;;;;;;-3.00;99.90;;;;;;6721708;88;20576;-76
2024/01/19 02:47:17;;;;;;;;;;;-3.10;99.90;;;;;;6722224;88;20081;-76
2024/01/19 02:57:17;;;;;;;;;;;-2.90;99.90;;;;;;6727396;88;20153;-76
2024/01/19 03:07:18;;;;;;;;;;;-3.10;99.90;;;;;;6721801;88;20084;-76
2024/01/19 03:17:19;;;;;;;;;;;-3.10;99.90;;;;;;6722525;88;20066;-76
2024/01/19 03:27:19;;;;;;;;;;;-3.20;99.90;;;;;;6721769;88;20166;-77
2024/01/19 03:37:20;;;;;;;;;;;-3.50;99.90;;;;;;6719879;88;20168;-77
2024/01/19 03:47:20;;;;;;;;;;;-3.80;99.90;;;;;;6724245;88;20047;-76
2024/01/19 03:57:20;;;;;;;;;;;-3.80;99.90;;;;;;6727989;88;20055;-76
2024/01/19 04:07:21;;;;;;;;;;;-3.60;99.90;;;;;;6722605;88;20073;-76
2024/01/19 04:17:21;;;;;;;;;;;-3.30;99.90;;;;;;6726153;88;20058;-75
2024/01/19 04:27:22;;;;;;;;;;;-3.00;99.90;;;;;;6732819;88;20055;-75
2024/01/19 04:37:22;;;;;;;;;;;-3.20;99.90;;;;;;6720762;88;20107;-75
2024/01/19 04:47:23;;;;;;;;;;;-3.20;99.90;;;;;;6721373;88;20185;-75
2024/01/19 04:57:23;;;;;;;;;;;-3.10;99.90;;;;;;6736089;88;20149;-75
2024/01/19 05:07:24;;;;;;;;;;;-3.00;99.90;;;;;;6727741;88;20303;-75
2024/01/19 05:17:24;;;;;;;;;;;-2.50;99.90;;;;;;6727907;88;20079;-75
2024/01/19 05:27:25;;;;;;;;;;;-2.30;99.90;;;;;;6727128;88;20100;-75
2024/01/19 05:37:26;;;;;;;;;;;-2.20;99.90;;;;;;6723042;88;20077;-75
2024/01/19 05:47:26;;;;;;;;;;;-2.10;99.90;;;;;;6727706;88;20787;-75
2024/01/19 05:57:27;;;;;;;;;;;-2.40;99.90;;;;;;6727632;88;20088;-74
2024/01/19 06:07:27;;;;;;;;;;;-2.70;99.90;;;;;;6725057;88;20063;-76
2024/01/19 06:17:28;;;;;;;;;;;-2.60;99.90;;;;;;6719361;88;20550;-76
2024/01/19 06:27:29;;;;;;;;;;;-2.50;99.90;;;;;;6725105;88;20120;-76
2024/01/19 06:37:29;;;;;;;;;;;-2.50;99.90;;;;;;6719719;88;20164;-76
2024/01/19 06:47:31;;;;;;;;;;;-2.40;99.90;;;;;;6692392;77;20053;-83
2024/01/19 06:57:32;;;;;;;;;;;-2.30;99.90;;;;;;6656132;89;20479;-79
2024/01/19 07:07:33;;;;;;;;;;;-2.30;99.90;;;;;;6656155;89;20096;-78
2024/01/19 07:17:33;;;;;;;;;;;-2.40;99.90;;;;;;6659186;89;20802;-77
2024/01/19 07:27:35;;;;;;;;;;;-2.60;99.90;;;;;;6653286;89;20091;-78
2024/01/19 07:37:35;;;;;;;;;;;-2.60;99.90;;;;;;6648326;89;20063;-77
2024/01/19 07:47:36;;;;;;;;;;;-2.60;99.90;;;;;;6639194;88;20091;-78
2024/01/19 07:57:36;;;;;;;;;;;-2.50;99.90;;;;;;6650177;89;20050;-78
2024/01/19 08:07:37;;;;;;;;;;;-2.60;99.90;;;;;;6655196;89;20086;-78
2024/01/19 08:17:37;;;;;;;;;;;-2.80;99.90;;;;;;6702915;88;20155;-78
2024/01/19 08:27:42;;;;;;;;;;;-2.80;99.90;;;;;;6639623;89;20066;-78
2024/01/19 08:37:42;;;;;;;;;;;-2.80;99.90;;;;;;6638573;89;20042;-76
2024/01/19 08:47:42;;;;;;;;;;;-2.60;99.90;;;;;;6636822;88;20058;-79
2024/01/19 08:57:43;;;;;;;;;;;-2.40;99.90;;;;;;6639511;89;20478;-79
2024/01/19 09:07:43;;;;;;;;;;;-2.10;99.90;;;;;;6751342;88;20081;-78
2024/01/19 09:17:44;;;;;;;;;;;-2.00;99.90;;;;;;6741119;88;20674;-80
2024/01/19 09:27:44;;;;;;;;;;;-1.60;99.90;;;;;;6741405;88;20075;-78
2024/01/19 09:37:45;;;;;;;;;;;-0.90;99.90;;;;;;6740838;88;20172;-79
2024/01/19 09:48:04;;;;;;;;;;;-0.10;99.90;;;;;;6740779;88;20135;-79
2024/01/19 09:58:05;;;;;;;;;;;0.50;99.90;;;;;;6634514;89;20137;-79
2024/01/19 10:08:05;;;;;;;;;;;1.00;99.90;;;;;;6635123;89;20050;-77
2024/01/19 10:18:06;;;;;;;;;;;1.00;99.90;;;;;;6651636;89;20207;-76
2024/01/19 10:28:07;;;;;;;;;;;0.90;99.90;;;;;;6650996;89;20083;-77
2024/01/19 10:38:07;;;;;;;;;;;1.10;99.90;;;;;;6655564;88;20078;-78
2024/01/19 10:48:08;;;;;;;;;;;1.40;99.90;;;;;;6656958;88;20068;-78
2024/01/19 10:58:09;;;;;;;;;;;2.40;99.90;;;;;;6657353;89;20498;-77
2024/01/19 11:08:09;;;;;;;;;;;2.40;99.90;;;;;;6648115;89;20089;-77
2024/01/19 11:18:10;;;;;;;;;;;2.30;99.90;;;;;;6647938;88;20203;-77
2024/01/19 11:28:19;;;;;;;;;;;2.30;99.90;;;;;;6649062;89;20098;-78
2024/01/19 11:38:38;;;;;;;;;;;2.40;99.90;;;;;;6649265;88;20089;-77
2024/01/19 11:48:43;;;;;;;;;;;2.40;99.90;;;;;;6648435;89;20069;-78
2024/01/19 11:58:43;;;;;;;;;;;2.40;99.90;;;;;;6650261;89;20212;-78
2024/01/19 12:08:44;;;;;;;;;;;2.50;99.90;;;;;;6650528;88;20133;-78
2024/01/19 12:18:45;;;;;;;;;;;2.70;99.90;;;;;;6650851;88;20065;-78
2024/01/19 12:28:48;;;;;;;;;;;2.70;99.90;;;;;;6652949;89;20068;-78
2024/01/19 12:39:00;;;;;;;;;;;2.70;99.90;;;;;;6666034;89;20103;-78
2024/01/19 12:49:02;;;;;;;;;;;3.10;99.90;;;;;;6722370;76;20122;-78
2024/01/19 12:59:09;;;;;;;;;;;3.30;99.90;;;;;;6717158;88;20099;-78
2024/01/19 13:09:13;;;;;;;;;;;3.30;99.90;;;;;;6718045;88;20190;-78
2024/01/19 13:19:14;;;;;;;;;;;3.50;99.90;;;;;;6717056;88;20685;-77
2024/01/19 13:29:15;;;;;;;;;;;3.20;99.90;;;;;;6717210;88;20080;-77
2024/01/19 13:39:15;;;;;;;;;;;4.00;99.90;;;;;;6720590;88;20083;-78
2024/01/19 13:49:15;;;;;;;;;;;5.30;99.90;;;;;;6721447;88;20111;-77
2024/01/19 13:59:16;;;;;;;;;;;6.10;99.90;;;;;;6716984;88;20071;-76
2024/01/19 14:09:17;;;;;;;;;;;5.70;99.90;;;;;;6715179;88;20071;-76
2024/01/19 14:19:17;;;;;;;;;;;6.20;99.90;;;;;;6719953;88;20071;-77
2024/01/19 14:29:18;;;;;;;;;;;6.40;99.90;;;;;;6713111;88;20552;-77
2024/01/19 14:39:18;;;;;;;;;;;6.10;99.90;;;;;;6714902;88;20183;-77
2024/01/19 14:49:26;;;;;;;;;;;6.30;99.90;;;;;;6713231;88;20100;-77
2024/01/19 14:59:27;;;;;;;;;;;5.90;99.90;;;;;;6714047;88;20047;-77
2024/01/19 15:09:27;;;;;;;;;;;5.40;99.90;;;;;;6709222;88;20068;-76
2024/01/19 15:19:28;;;;;;;;;;;5.00;99.90;;;;;;6712837;88;20051;-76
2024/01/19 15:29:28;;;;;;;;;;;4.60;99.90;;;;;;6713813;88;20070;-76
2024/01/19 15:39:29;;;;;;;;;;;3.70;99.90;;;;;;6713548;88;20079;-75
2024/01/19 15:49:29;;;;;;;;;;;3.00;99.90;;;;;;6714970;88;20080;-76
2024/01/19 15:59:30;;;;;;;;;;;2.00;99.90;;;;;;6716129;88;20185;-75
2024/01/19 16:09:30;;;;;;;;;;;1.50;99.90;;;;;;6717280;88;20505;-75
2024/01/19 16:19:31;;;;;;;;;;;1.10;99.90;;;;;;6716468;88;20079;-75
2024/01/19 16:29:33;;;;;;;;;;;0.80;99.90;;;;;;6715081;88;20154;-75
2024/01/19 16:39:35;;;;;;;;;;;0.50;99.90;;;;;;6716805;88;20063;-75
2024/01/19 16:49:35;;;;;;;;;;;0.30;99.90;;;;;;6717451;88;20058;-75
2024/01/19 16:59:35;;;;;;;;;;;0.10;99.90;;;;;;6715729;88;20227;-75
2024/01/19 17:09:36;;;;;;;;;;;-0.20;99.90;;;;;;6715666;88;20063;-75
2024/01/19 17:19:37;;;;;;;;;;;-0.30;99.90;;;;;;6711591;88;20184;-76
2024/01/19 17:29:37;;;;;;;;;;;-0.50;99.90;;;;;;6714419;88;20080;-76
2024/01/19 17:39:37;;;;;;;;;;;-0.70;99.90;;;;;;6716255;88;20539;-75
2024/01/19 17:49:39;;;;;;;;;;;-0.80;99.90;;;;;;6719194;88;20071;-76
2024/01/19 17:59:40;;;;;;;;;;;-0.90;99.90;;;;;;6719952;88;20993;-76
2024/01/19 18:09:40;;;;;;;;;;;-0.80;99.90;;;;;;6714164;88;20119;-75
2024/01/19 18:19:41;;;;;;;;;;;-0.80;99.90;;;;;;6714785;88;20127;-75
2024/01/19 18:29:41;;;;;;;;;;;-1.00;99.90;;;;;;6716589;88;20054;-75
2024/01/19 18:39:42;;;;;;;;;;;-1.10;99.90;;;;;;6715926;88;20081;-76
2024/01/19 19:00:23;;;;;;;;;;;-1.20;99.90;;;;;;6723567;88;20091;-78
2024/01/19 19:10:24;;;;;;;;;;;-1.30;99.90;;;;;;6724462;88;20157;-78
2024/01/19 19:20:24;;;;;;;;;;;-1.60;99.90;;;;;;6727777;88;20059;-78
2024/01/19 19:30:25;;;;;;;;;;;-1.60;99.90;;;;;;6728976;88;20071;-77
2024/01/19 19:40:25;;;;;;;;;;;-1.80;99.90;;;;;;6724381;88;20194;-78
2024/01/19 19:50:26;;;;;;;;;;;-1.90;99.90;;;;;;6722833;88;20870;-77
2024/01/19 20:00:26;;;;;;;;;;;-2.00;99.90;;;;;;6724256;88;20077;-77
2024/01/19 20:10:27;;;;;;;;;;;-2.10;99.90;;;;;;6724484;88;20071;-77
2024/01/19 20:20:27;;;;;;;;;;;-2.30;99.90;;;;;;6723422;88;20297;-79
2024/01/19 20:30:27;;;;;;;;;;;-2.50;99.90;;;;;;6721025;88;20506;-77
2024/01/19 20:40:30;;;;;;;;;;;-2.80;99.90;;;;;;6721539;88;20088;-77
2024/01/19 20:50:31;;;;;;;;;;;-2.80;99.90;;;;;;6724571;88;20050;-77
2024/01/19 21:00:33;;;;;;;;;;;-2.60;99.90;;;;;;6726242;88;20070;-77
2024/01/19 21:10:35;;;;;;;;;;;-2.30;99.90;;;;;;6726888;88;20127;-77
2024/01/19 21:20:35;;;;;;;;;;;-2.30;99.90;;;;;;6724429;88;20059;-78
2024/01/19 21:30:36;;;;;;;;;;;-2.30;99.90;;;;;;6724863;88;20063;-77
2024/01/19 21:40:36;;;;;;;;;;;-2.30;99.90;;;;;;6719489;88;20199;-77
2024/01/19 21:50:37;;;;;;;;;;;-2.30;99.90;;;;;;6725500;88;20246;-79
2024/01/19 22:00:37;;;;;;;;;;;-2.40;99.90;;;;;;6723193;88;20074;-78
2024/01/19 22:10:37;;;;;;;;;;;-2.50;99.90;;;;;;6734153;88;20755;-78
2024/01/19 22:20:38;;;;;;;;;;;-2.70;99.90;;;;;;6723153;88;20098;-79
2024/01/19 22:30:38;;;;;;;;;;;-2.80;99.90;;;;;;6725369;88;20074;-77
2024/01/19 22:40:39;;;;;;;;;;;-2.80;99.90;;;;;;6726335;88;20078;-79
2024/01/19 22:50:39;;;;;;;;;;;-2.70;99.90;;;;;;6725913;88;20205;-78
2024/01/19 23:00:40;;;;;;;;;;;-2.80;99.90;;;;;;6732228;88;20054;-78
2024/01/19 23:10:40;;;;;;;;;;;-3.00;99.90;;;;;;6734138;88;20082;-78
2024/01/19 23:20:41;;;;;;;;;;;-3.40;99.90;;;;;;6739219;88;20108;-78
2024/01/19 23:30:42;;;;;;;;;;;-3.60;99.90;;;;;;6736950;88;20078;-78
2024/01/19 23:40:42;;;;;;;;;;;-3.50;99.90;;;;;;6730807;88;20137;-77
2024/01/19 23:50:42;;;;;;;;;;;-3.60;99.90;;;;;;6720338;88;20080;-78
